createdAt,value
2022-10-22T00:00:36.523Z,100608.53
2022-10-22T00:05:37.991Z,100611.53
2022-10-22T00:10:39.472Z,100614.66
2022-10-22T00:15:41.050Z,100626.91
2022-10-22T00:20:48.245Z,100623.53
2022-10-22T00:25:49.870Z,100630.75
2022-10-22T00:30:58.961Z,100629.84
2022-10-22T00:36:01.932Z,100635.88
2022-10-22T00:41:03.484Z,100628.22
2022-10-22T00:46:05.092Z,100620.63
2022-10-22T00:51:08.854Z,100616.38
2022-10-22T00:56:12.190Z,100616.91
2022-10-22T01:01:18.032Z,100615.34
2022-10-22T01:06:42.187Z,100627.41
2022-10-22T01:12:07.682Z,100619.66
2022-10-22T01:17:34.125Z,100616.09
2022-10-22T01:23:00.444Z,100606.66
2022-10-22T01:28:16.945Z,100608.94
2022-10-22T01:33:19.940Z,100613.25
2022-10-22T01:38:24.614Z,100610.44
2022-10-22T01:43:26.199Z,100596.69
2022-10-22T01:48:39.031Z,100592.31
2022-10-22T01:54:10.303Z,100594.72
2022-10-22T01:59:41.740Z,100597.06
2022-10-22T02:05:12.662Z,100601.53
2022-10-22T02:10:16.007Z,100593.31
2022-10-22T02:15:19.986Z,100598.50
2022-10-22T02:20:35.153Z,100581.75
2022-10-22T02:25:40.653Z,100589.72
2022-10-22T02:30:47.962Z,100591.56
2022-10-22T02:35:51.524Z,100588.63
2022-10-22T02:40:53.291Z,100582.53
2022-10-22T02:45:54.762Z,100581.97
2022-10-22T02:50:56.472Z,100577.38
2022-10-22T02:55:58.534Z,100592.25
2022-10-22T03:01:00.242Z,100575.06
2022-10-22T03:06:01.849Z,100587.09
2022-10-22T03:11:03.486Z,100579.50
2022-10-22T03:16:05.356Z,100580.38
2022-10-22T03:21:38.867Z,100580.38
2022-10-22T03:26:42.064Z,100587.09
2022-10-22T03:31:44.687Z,100593.00
2022-10-22T03:36:47.522Z,100592.31
2022-10-22T03:41:51.246Z,100596.44
2022-10-22T03:46:54.850Z,100600.19
2022-10-22T03:52:14.879Z,100602.94
2022-10-22T03:57:17.712Z,100604.22
2022-10-22T04:02:19.331Z,100606.97
2022-10-22T04:07:21.155Z,100606.09
2022-10-22T04:12:22.726Z,100614.66
2022-10-22T04:17:24.274Z,100624.03
2022-10-22T04:22:26.871Z,100618.00
2022-10-22T04:27:32.128Z,100615.28
2022-10-22T04:32:33.631Z,100612.75
2022-10-22T04:37:37.897Z,100609.25
2022-10-22T04:42:39.654Z,100604.06
2022-10-22T04:47:41.728Z,100613.56
2022-10-22T04:52:46.582Z,100614.44
2022-10-22T04:57:48.124Z,100617.06
2022-10-22T05:02:50.572Z,100629.06
2022-10-22T05:07:52.191Z,100634.38
2022-10-22T05:12:53.667Z,100634.38
2022-10-22T05:17:55.139Z,100633.47
2022-10-22T05:22:56.795Z,100626.38
2022-10-22T05:28:00.247Z,100630.75
2022-10-22T05:33:02.164Z,100642.03
2022-10-22T05:38:05.022Z,100634.94
2022-10-22T05:43:06.487Z,100641.78
2022-10-22T05:48:09.879Z,100651.41
2022-10-22T05:53:11.877Z,100653.06
2022-10-22T05:58:14.016Z,100646.88
2022-10-22T06:03:15.513Z,100658.28
2022-10-22T06:08:19.079Z,100658.34
2022-10-22T06:13:20.778Z,100670.63
2022-10-22T06:18:22.267Z,100682.88
2022-10-22T06:23:23.821Z,100682.91
2022-10-22T06:28:25.565Z,100683.75
2022-10-22T06:33:28.943Z,100688.16
2022-10-22T06:38:30.436Z,100693.28
2022-10-22T06:43:33.435Z,100710.66
2022-10-22T06:48:38.057Z,100717.72
2022-10-22T06:53:40.702Z,100722.09
2022-10-22T06:58:43.528Z,100723.00
2022-10-22T07:03:45.802Z,100729.09
2022-10-22T07:08:47.334Z,100734.38
2022-10-22T07:13:49.495Z,100749.97
2022-10-22T07:18:51.198Z,100754.44
2022-10-22T07:23:53.062Z,100758.00
2022-10-22T07:28:54.534Z,100762.41
2022-10-22T07:33:56.433Z,100771.16
2022-10-22T07:39:00.717Z,100762.59
2022-10-22T07:44:02.291Z,100767.84
2022-10-22T07:49:03.802Z,100782.59
2022-10-22T07:54:11.190Z,100787.91
2022-10-22T07:59:12.699Z,100794.88
2022-10-22T08:04:14.229Z,100797.47
2022-10-22T08:09:15.977Z,100802.72
2022-10-22T08:14:17.549Z,100816.56
2022-10-22T08:19:21.124Z,100819.25
2022-10-22T08:24:22.749Z,100828.72
2022-10-22T08:29:27.001Z,100836.59
2022-10-22T08:34:29.397Z,100841.84
2022-10-22T08:39:30.827Z,100853.09
2022-10-22T08:44:52.100Z,100860.94
2022-10-22T08:49:57.114Z,100868.72
2022-10-22T08:55:01.892Z,100883.50
2022-10-22T09:00:13.469Z,100893.88
2022-10-22T09:05:39.464Z,100893.03
2022-10-22T09:11:14.094Z,100912.09
2022-10-22T09:16:36.737Z,100915.56
2022-10-22T09:21:46.306Z,100939.84
2022-10-22T09:26:49.120Z,100955.44
2022-10-22T09:31:53.420Z,100963.28
2022-10-22T09:37:00.989Z,100976.34
2022-10-22T09:42:02.571Z,100989.34
2022-10-22T09:47:37.264Z,101012.81
2022-10-22T09:52:45.455Z,101030.19
2022-10-22T09:57:54.905Z,101048.41
2022-10-22T10:03:00.208Z,101051.91
2022-10-22T10:08:22.381Z,101075.38
2022-10-22T10:13:38.513Z,101090.16
2022-10-22T10:18:58.084Z,101105.78
2022-10-22T10:24:24.265Z,101111.03
2022-10-22T10:29:50.376Z,101124.00
2022-10-22T10:35:23.016Z,101128.34
2022-10-22T10:40:51.494Z,101124.06
2022-10-22T10:46:20.827Z,101133.66
2022-10-22T10:52:11.350Z,101138.88
2022-10-22T10:57:39.989Z,101135.41
2022-10-22T11:03:15.791Z,101151.00
2022-10-22T11:08:26.819Z,101150.78
2022-10-22T11:13:34.362Z,101171.00
2022-10-22T11:18:40.269Z,101176.19
2022-10-22T11:23:53.538Z,101164.00
2022-10-22T11:28:59.419Z,101175.31
2022-10-22T11:34:32.183Z,101181.44
2022-10-22T11:39:59.761Z,101185.81
2022-10-22T11:50:41.474Z,101181.41
2022-10-22T11:55:46.748Z,101187.59
2022-10-22T12:00:49.164Z,101184.97
2022-10-22T12:06:20.765Z,101183.19
2022-10-22T12:11:39.456Z,101184.06
2022-10-22T12:16:56.253Z,101193.66
2022-10-22T12:22:07.507Z,101187.56
2022-10-22T12:27:36.670Z,101194.53
2022-10-22T12:32:44.375Z,101203.22
2022-10-22T12:37:50.027Z,101193.63
2022-10-22T12:43:00.436Z,101188.34
2022-10-22T12:48:05.239Z,101195.25
2022-10-22T12:53:14.334Z,101188.25
2022-10-22T12:59:02.715Z,101199.44
2022-10-22T13:04:21.463Z,101197.78
2022-10-22T13:09:27.604Z,101197.03
2022-10-22T13:14:32.474Z,101216.19
2022-10-22T13:19:43.153Z,101201.34
2022-10-22T13:24:50.291Z,101197.88
2022-10-22T13:29:58.309Z,101195.09
2022-10-22T13:35:02.233Z,101197.81
2022-10-22T13:40:12.249Z,101208.31
2022-10-22T13:45:14.467Z,101205.75
2022-10-22T13:50:18.661Z,101212.75
2022-10-22T13:55:29.296Z,101223.22
2022-10-22T14:00:31.714Z,101220.59
2022-10-22T14:05:33.268Z,101217.13
2022-10-22T14:10:34.727Z,101220.59
2022-10-22T14:15:37.323Z,101212.75
2022-10-22T14:20:42.389Z,101217.16
2022-10-22T14:25:43.900Z,101219.72
2022-10-22T14:30:46.582Z,101219.75
2022-10-22T14:35:49.205Z,101219.78
2022-10-22T14:40:50.799Z,101214.53
2022-10-22T14:45:52.461Z,101218.88
2022-10-22T14:50:56.240Z,101239.72
2022-10-22T14:55:59.713Z,101233.59
2022-10-22T15:01:04.514Z,101239.69
2022-10-22T15:06:06.456Z,101244.97
2022-10-22T15:11:14.178Z,101251.88
2022-10-22T15:16:21.812Z,101259.72
2022-10-22T15:21:29.647Z,101260.56
2022-10-22T15:26:37.016Z,101263.16
2022-10-22T15:31:46.444Z,101264.06
2022-10-22T15:36:48.184Z,101259.69
2022-10-22T15:41:53.535Z,101255.31
2022-10-22T15:46:56.197Z,101272.69
2022-10-22T15:52:00.015Z,101275.22
2022-10-22T15:57:08.405Z,101275.19
2022-10-22T16:02:18.720Z,101273.28
2022-10-22T16:07:23.982Z,101267.03
2022-10-22T16:12:26.309Z,101264.28
2022-10-22T16:17:29.355Z,101262.50
2022-10-22T16:22:37.074Z,101271.84
2022-10-22T16:27:39.258Z,101263.88
2022-10-22T16:32:41.011Z,101260.19
2022-10-22T16:37:45.910Z,101267.00
2022-10-22T16:42:50.397Z,101265.97
2022-10-22T16:47:52.050Z,101275.19
2022-10-22T16:52:53.643Z,101270.63
2022-10-22T16:57:55.223Z,101269.66
2022-10-22T17:02:56.949Z,101265.16
2022-10-22T17:07:58.457Z,101271.81
2022-10-22T17:13:00.005Z,101269.91
2022-10-22T17:18:01.757Z,101271.31
2022-10-22T17:23:03.295Z,101273.78
2022-10-22T17:28:04.797Z,101279.63
2022-10-22T17:33:07.720Z,101282.00
2022-10-22T17:38:09.232Z,101275.75
2022-10-22T17:43:13.419Z,101288.72
2022-10-22T17:48:14.899Z,101281.69
2022-10-22T17:53:16.695Z,101285.69
2022-10-22T17:58:18.155Z,101285.34
2022-10-22T18:03:22.115Z,101270.88
2022-10-22T18:08:26.783Z,101276.75
2022-10-22T18:13:28.456Z,101274.72
2022-10-22T18:18:30.302Z,101280.63
2022-10-22T18:23:31.798Z,101280.50
2022-10-22T18:28:34.900Z,101284.66
2022-10-22T18:33:37.250Z,101278.72
2022-10-22T18:38:41.372Z,101272.16
2022-10-22T18:43:49.172Z,101275.50
2022-10-22T18:48:55.524Z,101270.19
2022-10-22T18:54:05.482Z,101273.50
2022-10-22T18:59:22.699Z,101276.75
2022-10-22T19:04:24.249Z,101278.94
2022-10-22T19:09:26.621Z,101261.13
2022-10-22T19:14:28.138Z,101256.56
2022-10-22T19:19:34.955Z,101246.22
2022-10-22T19:24:36.442Z,101252.69
2022-10-22T19:29:39.412Z,101252.63
2022-10-22T19:34:42.544Z,101241.38
2022-10-22T19:39:44.221Z,101237.25
2022-10-22T19:44:45.700Z,101231.91
2022-10-22T19:49:47.124Z,101235.25
2022-10-22T19:54:48.808Z,101229.28
2022-10-22T19:59:52.863Z,101238.38
2022-10-22T20:04:54.312Z,101235.66
2022-10-22T20:09:55.828Z,101244.38
2022-10-22T20:14:59.572Z,101242.56
2022-10-22T20:20:02.779Z,101241.56
2022-10-22T20:25:06.283Z,101237.97
2022-10-22T20:30:08.932Z,101244.88
2022-10-22T20:35:10.412Z,101243.72
2022-10-22T20:40:12.944Z,101241.13
2022-10-22T20:45:14.495Z,101240.22
2022-10-22T20:50:17.795Z,101236.78
2022-10-22T20:55:20.896Z,101243.47
2022-10-22T21:00:22.462Z,101240.25
2022-10-22T21:05:23.934Z,101248.75
2022-10-22T21:10:27.988Z,101239.22
2022-10-22T21:15:35.481Z,101239.78
2022-10-22T21:20:39.262Z,101237.50
2022-10-22T21:25:43.321Z,101235.66
2022-10-22T21:30:46.165Z,101250.41
2022-10-22T21:35:55.898Z,101260.78
2022-10-22T21:40:57.527Z,101254.00
2022-10-22T21:46:10.150Z,101243.56
2022-10-22T21:51:17.698Z,101237.56
2022-10-22T21:56:26.277Z,101237.78
2022-10-22T22:01:27.911Z,101245.44
2022-10-22T22:06:33.067Z,101244.56
2022-10-22T22:11:35.244Z,101239.50
2022-10-22T22:16:36.748Z,101243.81
2022-10-22T22:21:39.878Z,101237.97
2022-10-22T22:26:41.402Z,101226.81
2022-10-22T22:31:43.579Z,101225.09
2022-10-22T22:36:46.960Z,101214.03
2022-10-22T22:41:48.662Z,101206.19
2022-10-22T22:46:50.281Z,101198.44
2022-10-22T22:51:51.775Z,101189.84
2022-10-22T22:56:53.260Z,101190.56
2022-10-22T23:01:56.263Z,101180.03
2022-10-22T23:06:57.770Z,101181.75
2022-10-22T23:11:59.158Z,101180.94
2022-10-22T23:17:00.647Z,101172.28
2022-10-22T23:22:02.625Z,101170.50
2022-10-22T23:27:04.749Z,101172.22
2022-10-22T23:32:11.960Z,101156.72
2022-10-22T23:37:13.416Z,101160.94
2022-10-22T23:42:14.847Z,101174.66
2022-10-22T23:47:16.368Z,101169.47
2022-10-22T23:52:17.958Z,101164.97
2022-10-22T23:57:19.449Z,101153.56
